createdAt,value
2018-07-14T00:00:35.364Z,1015.21
2018-07-14T00:01:35.385Z,1015.24
2018-07-14T00:02:35.408Z,1015.22
2018-07-14T00:03:35.432Z,1015.21
2018-07-14T00:04:35.454Z,1015.19
2018-07-14T00:05:35.474Z,1015.19
2018-07-14T00:06:35.496Z,1015.20
2018-07-14T00:07:35.520Z,1015.16
2018-07-14T00:08:35.542Z,1015.15
2018-07-14T00:09:35.565Z,1015.19
2018-07-14T00:10:35.586Z,1015.17
2018-07-14T00:11:35.618Z,1015.16
2018-07-14T00:12:35.630Z,1015.20
2018-07-14T00:13:35.653Z,1015.18
2018-07-14T00:14:35.675Z,1015.16
2018-07-14T00:15:35.698Z,1015.18
2018-07-14T00:16:35.720Z,1015.17
2018-07-14T00:17:35.742Z,1015.20
2018-07-14T00:18:35.768Z,1015.19
2018-07-14T00:19:35.790Z,1015.14
2018-07-14T00:20:35.812Z,1015.19
2018-07-14T00:21:35.834Z,1015.16
2018-07-14T00:22:35.855Z,1015.17
2018-07-14T00:23:35.879Z,1015.22
2018-07-14T00:24:35.899Z,1015.19
2018-07-14T00:25:35.924Z,1015.19
2018-07-14T00:26:35.947Z,1015.21
2018-07-14T00:27:35.970Z,1015.21
2018-07-14T00:28:35.990Z,1015.21
2018-07-14T00:29:36.011Z,1015.19
2018-07-14T00:30:36.035Z,1015.22
2018-07-14T00:31:36.057Z,1015.18
2018-07-14T00:32:36.077Z,1015.21
2018-07-14T00:33:36.099Z,1015.20
2018-07-14T00:34:36.128Z,1015.20
2018-07-14T00:35:36.147Z,1015.16
2018-07-14T00:36:36.170Z,1015.15
2018-07-14T00:37:36.191Z,1015.15
2018-07-14T00:38:36.212Z,1015.10
2018-07-14T00:39:36.235Z,1015.12
2018-07-14T00:40:36.255Z,1015.14
2018-07-14T00:41:36.278Z,1015.19
2018-07-14T00:42:36.299Z,1015.15
2018-07-14T00:43:36.322Z,1015.18
2018-07-14T00:44:36.345Z,1015.20
2018-07-14T00:45:36.366Z,1015.19
2018-07-14T00:46:36.389Z,1015.18
2018-07-14T00:47:36.412Z,1015.17
2018-07-14T00:48:36.436Z,1015.16
2018-07-14T00:49:36.459Z,1015.18
2018-07-14T00:50:36.480Z,1015.15
2018-07-14T00:51:36.502Z,1015.14
2018-07-14T00:52:36.524Z,1015.15
2018-07-14T00:53:36.544Z,1015.19
2018-07-14T00:54:36.567Z,1015.18
2018-07-14T00:55:36.588Z,1015.15
2018-07-14T00:56:36.611Z,1015.15
2018-07-14T00:57:36.633Z,1015.16
2018-07-14T00:58:36.655Z,1015.16
2018-07-14T00:59:36.677Z,1015.16
2018-07-14T01:00:36.700Z,1015.20
2018-07-14T01:01:36.721Z,1015.18
2018-07-14T01:02:36.745Z,1015.19
2018-07-14T01:03:36.768Z,1015.11
2018-07-14T01:04:36.786Z,1015.17
2018-07-14T01:05:36.809Z,1015.16
2018-07-14T01:06:36.831Z,1015.16
2018-07-14T01:07:36.855Z,1015.13
2018-07-14T01:08:36.874Z,1015.17
2018-07-14T01:09:36.900Z,1015.15
2018-07-14T01:10:36.918Z,1015.13
2018-07-14T01:11:36.946Z,1015.14
2018-07-14T01:12:36.962Z,1015.12
2018-07-14T01:13:36.984Z,1015.18
2018-07-14T01:14:37.006Z,1015.17
2018-07-14T01:15:37.027Z,1015.15
2018-07-14T01:16:37.053Z,1015.14
2018-07-14T01:17:37.083Z,1015.09
2018-07-14T01:18:37.095Z,1015.13
2018-07-14T01:19:37.117Z,1015.13
2018-07-14T01:20:37.181Z,1015.15
2018-07-14T01:21:37.563Z,1015.15
2018-07-14T01:22:37.181Z,1015.13
2018-07-14T01:23:37.206Z,1015.18
2018-07-14T01:24:37.224Z,1015.17
2018-07-14T01:25:37.249Z,1015.17
2018-07-14T01:26:37.269Z,1015.19
2018-07-14T01:27:37.289Z,1015.19
2018-07-14T01:28:37.311Z,1015.17
2018-07-14T01:29:37.333Z,1015.15
2018-07-14T01:30:37.358Z,1015.14
2018-07-14T01:31:37.376Z,1015.16
2018-07-14T01:32:37.401Z,1015.13
2018-07-14T01:33:37.420Z,1015.08
2018-07-14T01:34:37.445Z,1015.08
2018-07-14T01:35:37.465Z,1015.09
2018-07-14T01:36:37.488Z,1015.09
2018-07-14T01:37:37.510Z,1015.07
2018-07-14T01:38:37.529Z,1015.07
2018-07-14T01:39:37.550Z,1015.08
2018-07-14T01:40:37.660Z,1015.04
2018-07-14T01:41:37.596Z,1015.07
2018-07-14T01:42:37.619Z,1015.07
2018-07-14T01:43:37.639Z,1015.03
2018-07-14T01:44:37.662Z,1015.06
2018-07-14T01:45:37.683Z,1015.03
2018-07-14T01:46:37.703Z,1015.06
2018-07-14T01:47:37.726Z,1015.08
2018-07-14T01:48:37.748Z,1015.05
2018-07-14T01:49:37.771Z,1015.04
2018-07-14T01:50:37.792Z,1015.05
2018-07-14T01:51:37.810Z,1015.05
2018-07-14T01:52:37.839Z,1015.06
2018-07-14T01:53:37.857Z,1015.04
2018-07-14T01:54:37.878Z,1015.05
2018-07-14T01:55:37.900Z,1015.05
2018-07-14T01:56:37.919Z,1015.05
2018-07-14T01:57:37.944Z,1015.06
2018-07-14T01:58:37.965Z,1015.07
2018-07-14T01:59:37.986Z,1015.09
2018-07-14T02:00:38.009Z,1015.11
2018-07-14T02:01:38.029Z,1015.13
2018-07-14T02:02:38.052Z,1015.11
2018-07-14T02:03:38.071Z,1015.12
2018-07-14T02:04:38.092Z,1015.14
2018-07-14T02:05:38.113Z,1015.15
2018-07-14T02:06:38.138Z,1015.15
2018-07-14T02:07:38.157Z,1015.17
2018-07-14T02:08:38.180Z,1015.20
2018-07-14T02:09:38.199Z,1015.18
2018-07-14T02:10:38.223Z,1015.19
2018-07-14T02:11:38.244Z,1015.16
2018-07-14T02:12:38.264Z,1015.18
2018-07-14T02:13:38.285Z,1015.18
2018-07-14T02:14:38.309Z,1015.15
2018-07-14T02:15:38.328Z,1015.16
2018-07-14T02:16:38.353Z,1015.16
2018-07-14T02:17:38.371Z,1015.20
2018-07-14T02:18:38.396Z,1015.21
2018-07-14T02:19:38.414Z,1015.21
2018-07-14T02:20:38.440Z,1015.22
2018-07-14T02:21:38.461Z,1015.23
2018-07-14T02:22:38.480Z,1015.21
2018-07-14T02:23:38.500Z,1015.24
2018-07-14T02:24:38.522Z,1015.24
2018-07-14T02:25:38.546Z,1015.22
2018-07-14T02:26:38.568Z,1015.24
2018-07-14T02:27:38.588Z,1015.25
2018-07-14T02:28:38.607Z,1015.25
2018-07-14T02:29:38.629Z,1015.21
2018-07-14T02:30:38.650Z,1015.24
2018-07-14T02:31:38.674Z,1015.22
2018-07-14T02:32:38.692Z,1015.23
2018-07-14T02:33:38.713Z,1015.22
2018-07-14T02:34:38.736Z,1015.23
2018-07-14T02:35:38.759Z,1015.20
2018-07-14T02:36:38.779Z,1015.20
2018-07-14T02:37:38.800Z,1015.24
2018-07-14T02:38:38.821Z,1015.23
2018-07-14T02:39:38.845Z,1015.22
2018-07-14T02:40:38.866Z,1015.20
2018-07-14T02:41:38.884Z,1015.29
2018-07-14T02:42:38.907Z,1015.22
2018-07-14T02:43:38.930Z,1015.22
2018-07-14T02:44:38.950Z,1015.22
2018-07-14T02:45:38.969Z,1015.22
2018-07-14T02:46:38.994Z,1015.21
2018-07-14T02:47:39.011Z,1015.21
2018-07-14T02:48:39.034Z,1015.20
2018-07-14T02:49:39.054Z,1015.18
2018-07-14T02:50:39.076Z,1015.21
2018-07-14T02:51:39.096Z,1015.18
2018-07-14T02:52:39.118Z,1015.20
2018-07-14T02:53:39.167Z,1015.19
2018-07-14T02:54:39.162Z,1015.19
2018-07-14T02:55:39.184Z,1015.20
2018-07-14T02:56:39.208Z,1015.22
2018-07-14T02:57:39.224Z,1015.22
2018-07-14T02:58:39.246Z,1015.25
2018-07-14T02:59:39.287Z,1015.19
2018-07-14T03:00:39.289Z,1015.21
2018-07-14T03:01:39.310Z,1015.21
2018-07-14T03:02:39.331Z,1015.17
2018-07-14T03:03:39.358Z,1015.17
2018-07-14T03:04:39.377Z,1015.15
2018-07-14T03:05:39.393Z,1015.17
2018-07-14T03:06:39.418Z,1015.15
2018-07-14T03:07:39.438Z,1015.16
2018-07-14T03:08:39.456Z,1015.11
2018-07-14T03:09:39.478Z,1015.12
2018-07-14T03:10:39.500Z,1015.07
2018-07-14T03:11:39.519Z,1015.10
2018-07-14T03:12:39.540Z,1015.08
2018-07-14T03:13:39.562Z,1015.07
2018-07-14T03:14:39.584Z,1015.09
2018-07-14T03:15:39.603Z,1015.12
2018-07-14T03:16:39.628Z,1015.05
2018-07-14T03:17:39.653Z,1015.04
2018-07-14T03:18:39.669Z,1015.02
2018-07-14T03:19:39.690Z,1015.07
2018-07-14T03:20:39.712Z,1015.03
2018-07-14T03:21:39.731Z,1015.03
2018-07-14T03:22:39.754Z,1015.04
2018-07-14T03:23:39.773Z,1015.03
2018-07-14T03:24:39.794Z,1015.00
2018-07-14T03:25:39.818Z,1015.00
2018-07-14T03:26:39.836Z,1015.01
2018-07-14T03:27:39.865Z,1015.01
2018-07-14T03:28:39.880Z,1015.01
2018-07-14T03:29:39.901Z,1015.03
2018-07-14T03:30:39.921Z,1015.03
2018-07-14T03:31:39.941Z,1015.03
2018-07-14T03:32:39.966Z,1015.04
2018-07-14T03:33:39.986Z,1014.99
2018-07-14T03:34:40.009Z,1014.99
2018-07-14T03:35:40.026Z,1014.95
2018-07-14T03:36:40.070Z,1014.99
2018-07-14T03:37:40.071Z,1014.99
2018-07-14T03:38:40.093Z,1014.96
2018-07-14T03:39:40.112Z,1014.98
2018-07-14T03:40:40.132Z,1014.96
2018-07-14T03:41:40.157Z,1014.97
2018-07-14T03:42:40.175Z,1014.99
2018-07-14T03:43:40.199Z,1014.97
2018-07-14T03:44:40.217Z,1014.96
2018-07-14T03:45:40.241Z,1014.95
2018-07-14T03:46:40.261Z,1014.92
2018-07-14T03:47:40.283Z,1014.93
2018-07-14T03:48:40.303Z,1014.97
2018-07-14T03:49:40.328Z,1014.94
2018-07-14T03:50:40.348Z,1014.97
2018-07-14T03:51:40.367Z,1015.03
2018-07-14T03:52:40.390Z,1015.04
2018-07-14T03:53:40.412Z,1015.00
2018-07-14T03:54:40.429Z,1015.03
2018-07-14T03:55:40.450Z,1015.04
2018-07-14T03:56:40.473Z,1015.04
2018-07-14T03:57:40.532Z,1015.02
2018-07-14T03:58:40.514Z,1015.02
2018-07-14T03:59:40.534Z,1014.99
2018-07-14T04:00:40.559Z,1014.99
2018-07-14T04:01:40.581Z,1014.95
2018-07-14T04:02:40.599Z,1014.95
2018-07-14T04:03:40.621Z,1014.89
2018-07-14T04:04:40.643Z,1014.92
2018-07-14T04:05:40.665Z,1014.96
2018-07-14T04:06:40.684Z,1014.93
2018-07-14T04:07:40.720Z,1014.92
2018-07-14T04:08:40.729Z,1014.99
2018-07-14T04:09:40.751Z,1015.00
2018-07-14T04:10:40.769Z,1014.99
2018-07-14T04:11:40.790Z,1014.95
2018-07-14T04:12:40.816Z,1014.96
2018-07-14T04:13:40.837Z,1014.95
2018-07-14T04:14:40.872Z,1014.88
2018-07-14T04:15:40.877Z,1014.93
2018-07-14T04:16:40.899Z,1014.96
2018-07-14T04:17:40.923Z,1014.95
2018-07-14T04:18:40.941Z,1014.94
2018-07-14T04:19:40.962Z,1014.97
2018-07-14T04:20:40.984Z,1014.98
2018-07-14T04:21:41.005Z,1015.01
2018-07-14T04:22:41.024Z,1014.99
2018-07-14T04:23:41.047Z,1014.97
2018-07-14T04:24:41.069Z,1015.00
2018-07-14T04:25:41.089Z,1014.96
2018-07-14T04:26:41.112Z,1014.97
2018-07-14T04:27:41.131Z,1014.97
2018-07-14T04:28:41.154Z,1015.01
2018-07-14T04:29:41.177Z,1015.02
2018-07-14T04:30:41.197Z,1015.04
2018-07-14T04:31:41.218Z,1015.08
2018-07-14T04:32:41.236Z,1015.08
2018-07-14T04:33:41.258Z,1015.09
2018-07-14T04:34:41.281Z,1015.08
2018-07-14T04:35:41.302Z,1015.04
2018-07-14T04:36:41.324Z,1015.02
2018-07-14T04:37:41.348Z,1014.95
2018-07-14T04:38:41.368Z,1014.95
2018-07-14T04:39:41.387Z,1014.98
2018-07-14T04:40:41.410Z,1014.95
2018-07-14T04:41:41.431Z,1015.01
2018-07-14T04:42:41.452Z,1015.00
2018-07-14T04:43:41.476Z,1014.95
2018-07-14T04:44:41.494Z,1015.02
2018-07-14T04:45:41.522Z,1015.01
2018-07-14T04:46:41.538Z,1015.03
2018-07-14T04:47:41.559Z,1015.03
2018-07-14T04:48:41.582Z,1014.99
2018-07-14T04:49:41.603Z,1015.00
2018-07-14T04:50:41.630Z,1014.99
2018-07-14T04:51:41.645Z,1014.98
2018-07-14T04:52:41.671Z,1014.95
2018-07-14T04:53:45.506Z,1014.98
2018-07-14T04:54:41.709Z,1015.02
2018-07-14T04:55:41.728Z,1015.04
2018-07-14T04:56:41.752Z,1015.09
2018-07-14T04:57:41.774Z,1015.08
2018-07-14T04:58:41.793Z,1015.14
2018-07-14T04:59:41.816Z,1015.17
2018-07-14T05:00:41.838Z,1015.21
2018-07-14T05:01:41.860Z,1015.17
2018-07-14T05:02:41.883Z,1015.15
2018-07-14T05:03:41.900Z,1015.15
2018-07-14T05:04:41.925Z,1015.12
2018-07-14T05:05:41.943Z,1015.12
2018-07-14T05:06:41.967Z,1015.06
2018-07-14T05:07:41.986Z,1015.06
2018-07-14T05:08:42.017Z,1015.05
2018-07-14T05:09:43.083Z,1015.04
2018-07-14T05:10:42.051Z,1015.04
2018-07-14T05:11:42.073Z,1015.03
2018-07-14T05:12:42.094Z,1015.06
2018-07-14T05:13:42.117Z,1015.04
2018-07-14T05:14:42.139Z,1015.04
2018-07-14T05:15:42.160Z,1015.05
2018-07-14T05:16:42.182Z,1015.03
2018-07-14T05:17:42.204Z,1015.06
2018-07-14T05:18:42.223Z,1015.05
2018-07-14T05:19:42.247Z,1015.05
2018-07-14T05:20:42.269Z,1015.07
2018-07-14T05:21:42.291Z,1015.03
2018-07-14T05:22:42.313Z,1015.02
2018-07-14T05:23:42.333Z,1015.01
2018-07-14T05:24:42.353Z,1015.05
2018-07-14T05:25:42.377Z,1015.05
2018-07-14T05:26:42.422Z,1015.12
2018-07-14T05:27:42.419Z,1015.11
2018-07-14T05:28:42.490Z,1015.13
2018-07-14T05:29:42.464Z,1015.13
2018-07-14T05:30:42.482Z,1015.15
2018-07-14T05:31:42.504Z,1015.14
2018-07-14T05:32:42.525Z,1015.14
2018-07-14T05:33:42.549Z,1015.13
2018-07-14T05:34:42.569Z,1015.12
2018-07-14T05:35:42.594Z,1015.15
2018-07-14T05:36:42.616Z,1015.19
2018-07-14T05:37:42.635Z,1015.16
2018-07-14T05:38:42.658Z,1015.15
2018-07-14T05:39:42.677Z,1015.19
2018-07-14T05:40:42.699Z,1015.16
2018-07-14T05:41:42.724Z,1015.18
2018-07-14T05:42:42.747Z,1015.19
2018-07-14T05:43:42.768Z,1015.23
2018-07-14T05:44:42.788Z,1015.23
2018-07-14T05:45:42.811Z,1015.24
2018-07-14T05:46:42.831Z,1015.29
2018-07-14T05:47:42.853Z,1015.30
2018-07-14T05:48:42.877Z,1015.26
2018-07-14T05:49:42.899Z,1015.30
2018-07-14T05:50:42.921Z,1015.29
2018-07-14T05:51:42.942Z,1015.32
2018-07-14T05:52:42.962Z,1015.30
2018-07-14T05:53:42.986Z,1015.26
2018-07-14T05:54:43.009Z,1015.32
2018-07-14T05:55:43.033Z,1015.28
2018-07-14T05:56:43.051Z,1015.31
2018-07-14T05:57:43.073Z,1015.29
2018-07-14T05:58:43.099Z,1015.33
2018-07-14T05:59:43.120Z,1015.32
2018-07-14T06:00:43.144Z,1015.34
2018-07-14T06:01:43.165Z,1015.34
2018-07-14T06:02:43.185Z,1015.32
2018-07-14T06:03:43.209Z,1015.38
2018-07-14T06:04:43.236Z,1015.38
2018-07-14T06:05:43.255Z,1015.40
2018-07-14T06:06:43.279Z,1015.41
2018-07-14T06:07:43.329Z,1015.49
2018-07-14T06:08:43.325Z,1015.51
2018-07-14T06:09:44.099Z,1015.50
2018-07-14T06:10:43.372Z,1015.54
2018-07-14T06:11:43.391Z,1015.58
2018-07-14T06:12:43.414Z,1015.58
2018-07-14T06:13:43.440Z,1015.61
2018-07-14T06:14:43.464Z,1015.61
2018-07-14T06:15:43.487Z,1015.60
2018-07-14T06:16:43.511Z,1015.55
2018-07-14T06:17:43.535Z,1015.60
2018-07-14T06:18:43.556Z,1015.61
2018-07-14T06:19:43.582Z,1015.64
2018-07-14T06:20:43.607Z,1015.64
2018-07-14T06:21:43.628Z,1015.66
2018-07-14T06:22:43.653Z,1015.64
2018-07-14T06:23:43.674Z,1015.62
2018-07-14T06:24:43.697Z,1015.63
2018-07-14T06:25:43.721Z,1015.58
2018-07-14T06:26:43.748Z,1015.61
2018-07-14T06:27:43.773Z,1015.64
2018-07-14T06:28:43.793Z,1015.65
2018-07-14T06:29:43.817Z,1015.63
2018-07-14T06:30:43.841Z,1015.60
2018-07-14T06:31:43.868Z,1015.61
2018-07-14T06:32:43.889Z,1015.67
2018-07-14T06:33:43.917Z,1015.66
2018-07-14T06:34:43.942Z,1015.62
2018-07-14T06:35:43.962Z,1015.71
2018-07-14T06:36:43.994Z,1015.71
2018-07-14T06:37:44.013Z,1015.66
2018-07-14T06:38:44.084Z,1015.64
2018-07-14T06:39:44.063Z,1015.62
2018-07-14T06:40:44.090Z,1015.67
2018-07-14T06:41:44.113Z,1015.62
2018-07-14T06:42:44.141Z,1015.61
2018-07-14T06:43:44.163Z,1015.61
2018-07-14T06:44:44.195Z,1015.57
2018-07-14T06:45:44.214Z,1015.64
2018-07-14T06:46:44.239Z,1015.65
2018-07-14T06:47:44.262Z,1015.72
2018-07-14T06:48:44.288Z,1015.71
2018-07-14T06:49:44.313Z,1015.74
2018-07-14T06:50:44.335Z,1015.68
2018-07-14T06:51:44.362Z,1015.73
2018-07-14T06:52:44.383Z,1015.75
2018-07-14T06:53:44.408Z,1015.73
2018-07-14T06:54:44.433Z,1015.78
2018-07-14T06:55:44.458Z,1015.74
2018-07-14T06:56:44.483Z,1015.80
2018-07-14T06:57:44.509Z,1015.78
2018-07-14T06:58:44.530Z,1015.85
2018-07-14T06:59:44.554Z,1015.80
2018-07-14T07:00:44.578Z,1015.83
2018-07-14T07:01:44.602Z,1015.81
2018-07-14T07:02:44.629Z,1015.79
2018-07-14T07:03:44.655Z,1015.88
2018-07-14T07:04:44.678Z,1015.86
2018-07-14T07:05:44.699Z,1015.88
2018-07-14T07:06:44.727Z,1015.85
2018-07-14T07:07:44.748Z,1015.83
2018-07-14T07:08:44.773Z,1015.84
2018-07-14T07:09:44.798Z,1015.84
2018-07-14T07:10:44.823Z,1015.86
2018-07-14T07:11:44.844Z,1015.82
2018-07-14T07:12:44.871Z,1015.78
2018-07-14T07:13:44.914Z,1015.80
2018-07-14T07:14:44.918Z,1015.81
2018-07-14T07:15:44.945Z,1015.82
2018-07-14T07:16:44.970Z,1015.80
2018-07-14T07:17:44.993Z,1015.86
2018-07-14T07:18:45.018Z,1015.88
2018-07-14T07:19:45.043Z,1015.84
2018-07-14T07:20:45.070Z,1015.85
2018-07-14T07:21:45.092Z,1015.88
2018-07-14T07:22:45.119Z,1015.89
2018-07-14T07:23:45.141Z,1015.93
2018-07-14T07:24:45.167Z,1015.89
2018-07-14T07:25:45.195Z,1015.88
2018-07-14T07:26:45.221Z,1015.94
2018-07-14T07:27:45.242Z,1015.96
2018-07-14T07:28:45.299Z,1015.95
2018-07-14T07:29:45.294Z,1015.94
2018-07-14T07:30:45.322Z,1015.95
2018-07-14T07:31:45.345Z,1015.96
2018-07-14T07:32:45.372Z,1015.96
2018-07-14T07:33:45.398Z,1015.95
2018-07-14T07:34:45.427Z,1015.93
2018-07-14T07:35:45.450Z,1015.94
2018-07-14T07:36:45.473Z,1015.94
2018-07-14T07:37:45.503Z,1015.93
2018-07-14T07:38:45.527Z,1015.91
2018-07-14T07:39:45.549Z,1015.93
2018-07-14T07:40:45.580Z,1015.92
2018-07-14T07:41:45.604Z,1015.90
2018-07-14T07:42:45.630Z,1015.91
2018-07-14T07:43:45.654Z,1015.95
2018-07-14T07:44:45.683Z,1015.93
2018-07-14T07:45:45.704Z,1015.93
2018-07-14T07:46:45.729Z,1015.91
2018-07-14T07:47:45.753Z,1015.90
2018-07-14T07:48:45.781Z,1015.91
2018-07-14T07:49:45.804Z,1015.88
2018-07-14T07:50:45.833Z,1015.91
2018-07-14T07:51:45.855Z,1015.90
2018-07-14T07:52:45.884Z,1015.88
2018-07-14T07:53:45.909Z,1015.89
2018-07-14T07:54:45.931Z,1015.90
2018-07-14T07:55:45.955Z,1015.87
2018-07-14T07:56:45.981Z,1015.88
2018-07-14T07:57:46.013Z,1015.95
2018-07-14T07:58:46.033Z,1015.87
2018-07-14T07:59:46.059Z,1015.86
2018-07-14T08:00:46.083Z,1015.84
2018-07-14T08:01:46.108Z,1015.86
2018-07-14T08:02:46.135Z,1015.90
2018-07-14T08:03:46.159Z,1015.81
2018-07-14T08:04:46.182Z,1015.86
2018-07-14T08:05:46.210Z,1015.82
2018-07-14T08:06:46.235Z,1015.82
2018-07-14T08:07:46.257Z,1015.84
2018-07-14T08:08:46.302Z,1015.83
2018-07-14T08:09:46.307Z,1015.79
2018-07-14T08:10:46.334Z,1015.81
2018-07-14T08:11:46.357Z,1015.81
2018-07-14T08:12:46.383Z,1015.80
2018-07-14T08:13:46.406Z,1015.77
2018-07-14T08:14:46.431Z,1015.77
2018-07-14T08:15:46.458Z,1015.79
2018-07-14T08:16:46.481Z,1015.80
2018-07-14T08:17:46.508Z,1015.75
2018-07-14T08:18:46.534Z,1015.74
2018-07-14T08:19:46.554Z,1015.78
2018-07-14T08:20:46.583Z,1015.75
2018-07-14T08:21:46.609Z,1015.79
2018-07-14T08:22:46.666Z,1015.77
2018-07-14T08:23:46.654Z,1015.80
2018-07-14T08:24:46.679Z,1015.77
2018-07-14T08:25:46.706Z,1015.82
2018-07-14T08:26:46.748Z,1015.81
2018-07-14T08:27:46.754Z,1015.79
2018-07-14T08:28:46.780Z,1015.78
2018-07-14T08:29:46.804Z,1015.79
2018-07-14T08:30:46.832Z,1015.82
2018-07-14T08:31:46.853Z,1015.88
2018-07-14T08:32:46.881Z,1015.85
2018-07-14T08:33:46.904Z,1015.90
2018-07-14T08:34:46.933Z,1015.89
2018-07-14T08:35:46.953Z,1015.85
2018-07-14T08:36:46.978Z,1015.89
2018-07-14T08:37:47.007Z,1015.89
2018-07-14T08:38:47.031Z,1015.85
2018-07-14T08:39:47.055Z,1015.86
2018-07-14T08:40:47.079Z,1015.87
2018-07-14T08:41:47.107Z,1015.91
2018-07-14T08:42:47.128Z,1015.82
2018-07-14T08:43:47.232Z,1015.81
2018-07-14T08:44:47.177Z,1015.86
2018-07-14T08:45:47.206Z,1015.84
2018-07-14T08:46:47.228Z,1015.87
2018-07-14T08:47:47.252Z,1015.92
2018-07-14T08:48:47.279Z,1015.93
2018-07-14T08:49:47.302Z,1015.91
2018-07-14T08:50:47.331Z,1015.94
2018-07-14T08:51:47.352Z,1015.89
2018-07-14T08:52:47.380Z,1015.92
2018-07-14T08:53:47.403Z,1015.88
2018-07-14T08:54:47.427Z,1015.86
2018-07-14T08:55:47.455Z,1015.91
2018-07-14T08:56:47.480Z,1015.83
2018-07-14T08:57:47.505Z,1015.85
2018-07-14T08:58:47.530Z,1015.83
2018-07-14T08:59:47.553Z,1015.85
2018-07-14T09:00:47.580Z,1015.87
2018-07-14T09:01:47.602Z,1015.82
2018-07-14T09:02:47.628Z,1015.84
2018-07-14T09:03:47.651Z,1015.83
2018-07-14T09:04:47.676Z,1015.82
2018-07-14T09:05:47.705Z,1015.84
2018-07-14T09:06:47.727Z,1015.83
2018-07-14T09:07:47.753Z,1015.83
2018-07-14T09:08:47.778Z,1015.78
2018-07-14T09:09:47.804Z,1015.83
2018-07-14T09:10:47.825Z,1015.86
2018-07-14T09:11:47.850Z,1015.79
2018-07-14T09:12:47.878Z,1015.83
2018-07-14T09:13:47.900Z,1015.81
2018-07-14T09:14:47.926Z,1015.80
2018-07-14T09:15:47.950Z,1015.81
2018-07-14T09:16:47.975Z,1015.79
2018-07-14T09:17:48.004Z,1015.74
2018-07-14T09:18:48.029Z,1015.73
2018-07-14T09:19:48.054Z,1015.71
2018-07-14T09:20:48.077Z,1015.68
2018-07-14T09:21:48.102Z,1015.68
2018-07-14T09:22:48.124Z,1015.67
2018-07-14T09:23:48.152Z,1015.69
2018-07-14T09:24:48.178Z,1015.65
2018-07-14T09:25:48.203Z,1015.67
2018-07-14T09:26:48.224Z,1015.65
2018-07-14T09:27:48.251Z,1015.67
2018-07-14T09:28:48.277Z,1015.68
2018-07-14T09:29:48.299Z,1015.67
2018-07-14T09:30:48.334Z,1015.63
2018-07-14T09:31:48.351Z,1015.65
2018-07-14T09:32:48.376Z,1015.61
2018-07-14T09:33:48.453Z,1015.60
2018-07-14T09:34:48.428Z,1015.65
2018-07-14T09:35:48.455Z,1015.64
2018-07-14T09:36:48.480Z,1015.67
2018-07-14T09:37:48.504Z,1015.64
2018-07-14T09:38:48.527Z,1015.64
2018-07-14T09:39:48.553Z,1015.61
2018-07-14T09:40:48.578Z,1015.61
2018-07-14T09:41:48.607Z,1015.60
2018-07-14T09:42:48.629Z,1015.64
2018-07-14T09:43:48.652Z,1015.60
2018-07-14T09:44:48.675Z,1015.60
2018-07-14T09:45:48.701Z,1015.59
2018-07-14T09:46:48.726Z,1015.62
2018-07-14T09:47:48.873Z,1015.61
2018-07-14T09:48:48.776Z,1015.62
2018-07-14T09:49:48.804Z,1015.68
2018-07-14T09:50:48.831Z,1015.64
2018-07-14T09:51:48.854Z,1015.58
2018-07-14T09:52:48.880Z,1015.63
2018-07-14T09:53:48.902Z,1015.56
2018-07-14T09:54:48.927Z,1015.59
2018-07-14T09:55:48.951Z,1015.61
2018-07-14T09:56:48.977Z,1015.58
2018-07-14T09:57:49.009Z,1015.56
2018-07-14T09:58:49.031Z,1015.54
2018-07-14T09:59:49.054Z,1015.50
2018-07-14T10:00:49.078Z,1015.47
2018-07-14T10:01:49.104Z,1015.48
2018-07-14T10:02:49.128Z,1015.48
2018-07-14T10:03:49.151Z,1015.47
2018-07-14T10:04:49.181Z,1015.45
2018-07-14T10:05:49.202Z,1015.54
2018-07-14T10:06:49.231Z,1015.52
2018-07-14T10:07:49.253Z,1015.50
2018-07-14T10:08:49.280Z,1015.53
2018-07-14T10:09:49.304Z,1015.52
2018-07-14T10:10:49.333Z,1015.48
2018-07-14T10:11:49.355Z,1015.47
2018-07-14T10:12:49.379Z,1015.42
2018-07-14T10:13:49.405Z,1015.49
2018-07-14T10:14:49.471Z,1015.47
2018-07-14T10:15:49.458Z,1015.48
2018-07-14T10:16:49.484Z,1015.46
2018-07-14T10:17:49.597Z,1015.44
2018-07-14T10:18:49.533Z,1015.40
2018-07-14T10:19:49.561Z,1015.43
2018-07-14T10:20:49.586Z,1015.42
2018-07-14T10:21:49.610Z,1015.43
2018-07-14T10:22:49.636Z,1015.37
2018-07-14T10:23:49.661Z,1015.44
2018-07-14T10:24:49.687Z,1015.49
2018-07-14T10:25:50.028Z,1015.44
2018-07-14T10:26:49.745Z,1015.47
2018-07-14T10:27:49.761Z,1015.44
2018-07-14T10:28:49.799Z,1015.41
2018-07-14T10:29:49.815Z,1015.39
2018-07-14T10:30:49.840Z,1015.35
2018-07-14T10:31:49.865Z,1015.37
2018-07-14T10:32:49.895Z,1015.41
2018-07-14T10:33:49.951Z,1015.38
2018-07-14T10:34:49.945Z,1015.33
2018-07-14T10:35:49.973Z,1015.31
2018-07-14T10:36:49.995Z,1015.33
2018-07-14T10:37:50.024Z,1015.34
2018-07-14T10:38:50.098Z,1015.34
2018-07-14T10:39:50.077Z,1015.30
2018-07-14T10:40:50.103Z,1015.31
2018-07-14T10:41:50.129Z,1015.34
2018-07-14T10:42:50.154Z,1015.31
2018-07-14T10:43:50.181Z,1015.35
2018-07-14T10:44:50.206Z,1015.35
2018-07-14T10:45:50.233Z,1015.33
2018-07-14T10:46:50.280Z,1015.35
2018-07-14T10:47:50.282Z,1015.37
2018-07-14T10:48:50.311Z,1015.32
2018-07-14T10:49:50.336Z,1015.31
2018-07-14T10:50:50.361Z,1015.35
2018-07-14T10:51:50.387Z,1015.27
2018-07-14T10:52:50.412Z,1015.33
2018-07-14T10:53:50.440Z,1015.31
2018-07-14T10:54:50.467Z,1015.31
2018-07-14T10:55:50.493Z,1015.31
2018-07-14T10:56:50.519Z,1015.30
2018-07-14T10:57:50.546Z,1015.29
2018-07-14T10:58:50.569Z,1015.28
2018-07-14T10:59:50.598Z,1015.23
2018-07-14T11:00:50.620Z,1015.22
2018-07-14T11:01:50.649Z,1015.21
2018-07-14T11:02:50.677Z,1015.22
2018-07-14T11:03:50.703Z,1015.18
2018-07-14T11:04:50.726Z,1015.17
2018-07-14T11:05:50.753Z,1015.21
2018-07-14T11:06:50.779Z,1015.15
2018-07-14T11:07:50.806Z,1015.19
2018-07-14T11:08:50.832Z,1015.15
2018-07-14T11:09:50.860Z,1015.16
2018-07-14T11:10:50.885Z,1015.09
2018-07-14T11:11:50.911Z,1015.21
2018-07-14T11:12:50.944Z,1015.19
2018-07-14T11:13:50.963Z,1015.17
2018-07-14T11:14:50.987Z,1015.18
2018-07-14T11:15:51.019Z,1015.10
2018-07-14T11:16:51.042Z,1015.16
2018-07-14T11:17:51.112Z,1015.15
2018-07-14T11:18:51.093Z,1015.14
2018-07-14T11:19:51.117Z,1015.14
2018-07-14T11:20:51.143Z,1015.13
2018-07-14T11:21:51.172Z,1015.09
2018-07-14T11:22:51.195Z,1015.08
2018-07-14T11:23:51.222Z,1015.06
2018-07-14T11:24:51.249Z,1015.07
2018-07-14T11:25:51.280Z,1015.01
2018-07-14T11:26:51.300Z,1014.98
2018-07-14T11:27:51.328Z,1015.00
2018-07-14T11:28:51.351Z,1015.02
2018-07-14T11:29:51.382Z,1015.02
2018-07-14T11:30:51.407Z,1015.01
2018-07-14T11:31:51.433Z,1015.02
2018-07-14T11:32:51.457Z,1015.01
2018-07-14T11:33:51.484Z,1015.06
2018-07-14T11:34:51.509Z,1015.04
2018-07-14T11:35:51.535Z,1015.01
2018-07-14T11:36:51.560Z,1015.01
2018-07-14T11:37:51.588Z,1014.95
2018-07-14T11:38:51.613Z,1014.91
2018-07-14T11:39:51.639Z,1014.90
2018-07-14T11:40:51.665Z,1014.91
2018-07-14T11:41:51.692Z,1014.90
2018-07-14T11:42:51.719Z,1014.88
2018-07-14T11:43:51.745Z,1014.86
2018-07-14T11:44:51.771Z,1014.79
2018-07-14T11:45:51.798Z,1014.84
2018-07-14T11:46:51.824Z,1014.87
2018-07-14T11:47:51.865Z,1014.85
2018-07-14T11:48:51.877Z,1014.87
2018-07-14T11:49:52.004Z,1014.87
2018-07-14T11:50:51.929Z,1014.89
2018-07-14T11:51:51.958Z,1014.89
2018-07-14T11:52:51.985Z,1014.86
2018-07-14T11:53:52.008Z,1014.86
2018-07-14T11:54:52.037Z,1014.86
2018-07-14T11:55:52.060Z,1014.89
2018-07-14T11:56:52.086Z,1014.84
2018-07-14T11:57:52.115Z,1014.84
2018-07-14T11:58:52.138Z,1014.84
2018-07-14T11:59:52.163Z,1014.81
2018-07-14T12:00:52.193Z,1014.79
2018-07-14T12:01:52.239Z,1014.73
2018-07-14T12:02:52.247Z,1014.71
2018-07-14T12:03:52.272Z,1014.67
2018-07-14T12:04:52.296Z,1014.73
2018-07-14T12:05:52.322Z,1014.70